createdAt,value
2019-02-17T00:01:42.768Z,98618.64
2019-02-17T00:04:11.166Z,98617.37
2019-02-17T00:06:39.558Z,98617.72
2019-02-17T00:09:09.557Z,98615.98
2019-02-17T00:11:37.965Z,98615.48
2019-02-17T00:14:06.426Z,98612.89
2019-02-17T00:16:34.868Z,98614.59
2019-02-17T00:19:03.212Z,98611.13
2019-02-17T00:21:31.607Z,98613.63
2019-02-17T00:23:59.999Z,98615.28
2019-02-17T00:26:28.385Z,98615.23
2019-02-17T00:28:59.499Z,98611.80
2019-02-17T00:31:26.898Z,98614.30
2019-02-17T00:33:55.297Z,98613.00
2019-02-17T00:36:23.685Z,98620.16
2019-02-17T00:38:52.087Z,98620.16
2019-02-17T00:41:20.499Z,98618.45
2019-02-17T00:43:48.889Z,98618.80
2019-02-17T00:46:17.285Z,98619.23
2019-02-17T00:48:45.729Z,98619.19
2019-02-17T00:51:14.119Z,98621.73
2019-02-17T00:53:42.515Z,98619.95
2019-02-17T00:56:10.913Z,98612.71
2019-02-17T00:58:39.305Z,98608.05
2019-02-17T01:01:07.699Z,98606.31
2019-02-17T01:03:36.101Z,98608.05
2019-02-17T01:06:04.504Z,98614.32
2019-02-17T01:08:32.892Z,98613.86
2019-02-17T01:11:01.282Z,98614.70
2019-02-17T01:13:29.677Z,98617.20
2019-02-17T01:15:58.469Z,98610.30
2019-02-17T01:18:26.886Z,98604.80
2019-02-17T01:20:55.287Z,98606.91
2019-02-17T01:23:23.671Z,98608.52
2019-02-17T01:25:52.061Z,98610.63
2019-02-17T01:28:20.453Z,98608.91
2019-02-17T01:30:48.849Z,98604.23
2019-02-17T01:33:17.308Z,98606.73
2019-02-17T01:35:45.698Z,98607.55
2019-02-17T01:38:14.100Z,98601.20
2019-02-17T01:40:42.494Z,98601.16
2019-02-17T01:43:10.892Z,98596.03
2019-02-17T01:45:39.279Z,98593.49
2019-02-17T01:48:07.676Z,98591.37
2019-02-17T01:50:36.073Z,98597.26
2019-02-17T01:53:04.462Z,98598.48
2019-02-17T01:55:32.852Z,98595.05
2019-02-17T01:58:02.162Z,98595.05
2019-02-17T02:00:30.627Z,98594.63
2019-02-17T02:02:59.025Z,98591.20
2019-02-17T02:05:27.415Z,98595.43
2019-02-17T02:07:55.816Z,98586.45
2019-02-17T02:10:24.216Z,98593.23
2019-02-17T02:12:52.612Z,98586.80
2019-02-17T02:15:21.053Z,98585.91
2019-02-17T02:17:49.448Z,98588.03
2019-02-17T02:20:17.854Z,98580.83
2019-02-17T02:22:46.248Z,98579.09
2019-02-17T02:25:14.646Z,98576.94
2019-02-17T02:27:43.038Z,98578.67
2019-02-17T02:30:13.576Z,98573.93
2019-02-17T02:32:41.968Z,98571.77
2019-02-17T02:35:10.356Z,98573.00
2019-02-17T02:37:38.789Z,98570.38
2019-02-17T02:40:08.191Z,98573.75
2019-02-17T02:42:36.571Z,98573.70
2019-02-17T02:45:07.802Z,98570.70
2019-02-17T02:47:36.196Z,98571.93
2019-02-17T02:50:06.734Z,98575.70
2019-02-17T02:52:35.123Z,98570.16
2019-02-17T02:55:03.649Z,98562.95
2019-02-17T02:57:32.032Z,98566.77
2019-02-17T03:00:00.423Z,98568.80
2019-02-17T03:02:28.816Z,98568.37
2019-02-17T03:04:57.214Z,98565.28
2019-02-17T03:07:25.640Z,98563.12
2019-02-17T03:09:54.035Z,98562.27
2019-02-17T03:12:22.496Z,98562.61
2019-02-17T03:14:50.893Z,98562.18
2019-02-17T03:17:19.287Z,98567.64
2019-02-17T03:19:47.684Z,98564.62
2019-02-17T03:22:16.088Z,98561.63
2019-02-17T03:24:44.481Z,98555.70
2019-02-17T03:27:12.873Z,98557.77
2019-02-17T03:29:41.270Z,98559.47
2019-02-17T03:32:09.658Z,98558.58
2019-02-17T03:34:38.046Z,98562.85
2019-02-17T03:37:06.452Z,98558.63
2019-02-17T03:39:34.823Z,98557.77
2019-02-17T03:42:03.465Z,98551.80
2019-02-17T03:44:31.862Z,98556.80
2019-02-17T03:47:00.252Z,98568.64
2019-02-17T03:49:28.658Z,98567.75
2019-02-17T03:51:57.046Z,98563.05
2019-02-17T03:54:25.436Z,98571.75
2019-02-17T03:56:53.869Z,98569.50
2019-02-17T03:59:22.287Z,98566.50
2019-02-17T04:01:50.683Z,98571.48
2019-02-17T04:04:19.071Z,98569.78
2019-02-17T04:06:47.466Z,98563.86
2019-02-17T04:09:15.858Z,98561.79
2019-02-17T04:11:44.327Z,98566.87
2019-02-17T04:14:12.719Z,98566.41
2019-02-17T04:16:41.108Z,98564.61
2019-02-17T04:19:09.522Z,98566.31
2019-02-17T04:21:37.894Z,98565.04
2019-02-17T04:24:06.288Z,98559.63
2019-02-17T04:26:34.683Z,98558.36
2019-02-17T04:29:03.081Z,98554.89
2019-02-17T04:31:31.468Z,98554.05
2019-02-17T04:33:59.880Z,98556.16
2019-02-17T04:36:28.300Z,98547.66
2019-02-17T04:38:56.835Z,98546.39
2019-02-17T04:41:25.227Z,98547.66
2019-02-17T04:43:53.620Z,98539.19
2019-02-17T04:46:22.018Z,98536.61
2019-02-17T04:48:50.404Z,98531.48
2019-02-17T04:51:18.803Z,98533.98
2019-02-17T04:53:47.208Z,98535.63
2019-02-17T04:56:15.585Z,98536.10
2019-02-17T04:58:43.980Z,98538.22
2019-02-17T05:01:12.369Z,98543.30
2019-02-17T05:03:40.757Z,98541.59
2019-02-17T05:06:09.150Z,98544.13
2019-02-17T05:08:37.540Z,98542.39
2019-02-17T05:11:05.928Z,98545.35
2019-02-17T05:13:34.316Z,98541.12
2019-02-17T05:16:03.253Z,98551.65
2019-02-17T05:18:31.638Z,98551.65
2019-02-17T05:21:00.043Z,98549.11
2019-02-17T05:23:28.429Z,98553.30
2019-02-17T05:25:56.813Z,98554.09
2019-02-17T05:28:25.200Z,98557.02
2019-02-17T05:30:53.687Z,98556.58
2019-02-17T05:33:22.066Z,98560.77
2019-02-17T05:35:50.461Z,98563.30
2019-02-17T05:38:18.849Z,98561.56
2019-02-17T05:40:47.247Z,98559.78
2019-02-17T05:43:15.637Z,98561.89
2019-02-17T05:45:44.031Z,98560.95
2019-02-17T05:48:12.429Z,98565.64
2019-02-17T05:50:40.828Z,98563.95
2019-02-17T05:53:09.218Z,98569.83
2019-02-17T05:55:37.759Z,98571.47
2019-02-17T05:58:06.243Z,98573.11
2019-02-17T06:00:35.135Z,98574.33
2019-02-17T06:03:03.580Z,98570.06
2019-02-17T06:05:32.036Z,98550.66
2019-02-17T06:08:00.496Z,98574.81
2019-02-17T06:10:28.899Z,98575.98
2019-02-17T06:12:57.310Z,98556.42
2019-02-17T06:15:25.696Z,98583.16
2019-02-17T06:17:54.081Z,98592.42
2019-02-17T06:20:22.473Z,98589.50
2019-02-17T06:22:50.868Z,98594.95
2019-02-17T06:25:19.326Z,98599.17
2019-02-17T06:27:48.113Z,98605.56
2019-02-17T06:30:18.420Z,98597.11
2019-02-17T06:32:46.827Z,98600.91
2019-02-17T06:35:15.224Z,98604.72
2019-02-17T06:37:43.628Z,98596.73
2019-02-17T06:40:12.077Z,98611.20
2019-02-17T06:42:40.730Z,98606.18
2019-02-17T06:45:10.153Z,98608.72
2019-02-17T06:47:38.545Z,98610.41
2019-02-17T06:50:09.075Z,98609.61
2019-02-17T06:52:37.466Z,98604.13
2019-02-17T06:55:10.742Z,98611.88
2019-02-17T06:57:40.777Z,98611.92
2019-02-17T07:00:11.840Z,98609.53
2019-02-17T07:02:40.230Z,98601.55
2019-02-17T07:05:10.266Z,98604.19
2019-02-17T07:07:38.665Z,98611.89
2019-02-17T07:10:07.202Z,98616.16
2019-02-17T07:12:35.601Z,98609.91
2019-02-17T07:15:05.229Z,98616.35
2019-02-17T07:17:33.675Z,98611.37
2019-02-17T07:20:02.066Z,98614.00
2019-02-17T07:22:30.461Z,98614.89
2019-02-17T07:24:58.852Z,98612.45
2019-02-17T07:27:27.279Z,98620.16
2019-02-17T07:29:55.677Z,98627.40
2019-02-17T07:32:24.119Z,98626.22
2019-02-17T07:34:52.518Z,98630.92
2019-02-17T07:37:21.905Z,98631.48
2019-02-17T07:39:50.296Z,98627.81
2019-02-17T07:42:18.690Z,98604.97
2019-02-17T07:44:47.419Z,98630.97
2019-02-17T07:47:18.116Z,98631.05
2019-02-17T07:49:46.766Z,98632.92
2019-02-17T07:52:15.166Z,98630.52
2019-02-17T07:54:43.574Z,98627.69
2019-02-17T07:57:11.964Z,98632.05
2019-02-17T07:59:40.371Z,98630.07
2019-02-17T08:02:08.836Z,98625.96
2019-02-17T08:04:37.234Z,98629.87
2019-02-17T08:07:05.625Z,98626.60
2019-02-17T08:09:34.031Z,98629.31
2019-02-17T08:12:02.427Z,98620.13
2019-02-17T08:14:30.831Z,98624.10
2019-02-17T08:16:59.221Z,98618.34
2019-02-17T08:19:27.619Z,98626.09
2019-02-17T08:21:56.025Z,98631.25
2019-02-17T08:24:24.426Z,98626.64
2019-02-17T08:26:52.821Z,98620.78
2019-02-17T08:29:21.212Z,98625.48
2019-02-17T08:31:55.786Z,98626.03
2019-02-17T08:34:19.743Z,98624.00
2019-02-17T08:36:48.145Z,98621.57
2019-02-17T08:39:16.542Z,98616.64
2019-02-17T08:41:44.959Z,98613.75
2019-02-17T08:44:13.426Z,98620.73
2019-02-17T08:46:41.825Z,98623.77
2019-02-17T08:49:10.232Z,98620.50
2019-02-17T08:51:38.641Z,98620.57
2019-02-17T08:54:07.034Z,98614.28
2019-02-17T08:56:35.430Z,98610.54
2019-02-17T08:59:03.914Z,98617.05
2019-02-17T09:01:32.320Z,98609.18
2019-02-17T09:04:00.711Z,98607.59
2019-02-17T09:06:29.103Z,98606.42
2019-02-17T09:08:57.495Z,98602.78
2019-02-17T09:11:25.881Z,98609.36
2019-02-17T09:13:54.276Z,98609.56
2019-02-17T09:16:22.777Z,98609.70
2019-02-17T09:18:51.168Z,98609.50
2019-02-17T09:21:19.553Z,98612.61
2019-02-17T09:23:47.955Z,98601.20
2019-02-17T09:26:16.349Z,98601.34
2019-02-17T09:28:44.739Z,98597.67
2019-02-17T09:31:13.132Z,98601.16
2019-02-17T09:33:42.496Z,98601.74
2019-02-17T09:36:10.910Z,98605.27
2019-02-17T09:38:39.313Z,98604.59
2019-02-17T09:41:07.697Z,98604.77
2019-02-17T09:43:36.092Z,98603.20
2019-02-17T09:46:04.545Z,98603.78
2019-02-17T09:48:32.936Z,98578.50
2019-02-17T09:51:01.335Z,98605.28
2019-02-17T09:53:29.727Z,98602.41
2019-02-17T09:55:59.390Z,98600.02
2019-02-17T09:58:27.860Z,98601.42
2019-02-17T10:00:56.242Z,98595.09
2019-02-17T10:03:24.638Z,98595.56
2019-02-17T10:05:53.027Z,98599.89
2019-02-17T10:08:21.420Z,98594.89
2019-02-17T10:10:49.828Z,98596.31
2019-02-17T10:13:18.288Z,98595.08
2019-02-17T10:15:46.731Z,98589.63
2019-02-17T10:18:15.116Z,98585.84
2019-02-17T10:20:43.513Z,98584.25
2019-02-17T10:23:11.906Z,98588.21
2019-02-17T10:25:40.321Z,98582.73
2019-02-17T10:28:08.708Z,98580.68
2019-02-17T10:30:37.115Z,98575.16
2019-02-17T10:33:05.506Z,98575.66
2019-02-17T10:35:33.913Z,98580.94
2019-02-17T10:38:02.299Z,98572.03
2019-02-17T10:40:30.687Z,98573.92
2019-02-17T10:42:59.205Z,98575.33
2019-02-17T10:45:27.635Z,98564.34
2019-02-17T10:47:56.025Z,98561.42
2019-02-17T10:50:24.416Z,98564.84
2019-02-17T10:52:52.812Z,98554.66
2019-02-17T10:55:21.205Z,98548.70
2019-02-17T10:57:49.593Z,98549.66
2019-02-17T11:00:19.543Z,98542.88
2019-02-17T11:02:48.155Z,98534.39
2019-02-17T11:05:16.915Z,98533.23
2019-02-17T11:07:45.310Z,98530.27
2019-02-17T11:10:14.467Z,98520.08
2019-02-17T11:12:42.858Z,98522.25
2019-02-17T11:15:14.318Z,98519.77
2019-02-17T11:17:42.712Z,98511.73
2019-02-17T11:20:11.241Z,98514.34
2019-02-17T11:22:39.632Z,98511.82
2019-02-17T11:25:08.159Z,98506.33
2019-02-17T11:27:36.543Z,98501.28
2019-02-17T11:30:07.985Z,98500.87
2019-02-17T11:32:36.386Z,98499.14
2019-02-17T11:35:05.609Z,98492.34
2019-02-17T11:37:34.024Z,98493.22
2019-02-17T11:40:02.418Z,98492.41
2019-02-17T11:42:30.813Z,98486.91
2019-02-17T11:44:59.206Z,98486.08
2019-02-17T11:47:27.594Z,98486.11
2019-02-17T11:49:55.984Z,98483.12
2019-02-17T11:52:24.375Z,98478.44
2019-02-17T11:54:52.781Z,98478.02
2019-02-17T11:57:21.173Z,98470.31
2019-02-17T11:59:49.567Z,98474.16
2019-02-17T12:02:24.736Z,98475.45
2019-02-17T12:04:48.081Z,98469.07
2019-02-17T12:07:16.475Z,98463.09
2019-02-17T12:09:44.883Z,98466.09
2019-02-17T12:12:13.794Z,98464.38
2019-02-17T12:14:42.236Z,98451.57
2019-02-17T12:17:10.627Z,98451.58
2019-02-17T12:19:39.114Z,98448.13
2019-02-17T12:22:17.961Z,98440.83
2019-02-17T12:24:48.000Z,98436.56
2019-02-17T12:27:18.033Z,98432.65
2019-02-17T12:29:48.139Z,98426.67
2019-02-17T12:32:17.601Z,98427.52
2019-02-17T12:34:45.991Z,98423.25
2019-02-17T12:37:14.386Z,98419.80
2019-02-17T12:39:42.775Z,98412.54
2019-02-17T12:42:11.168Z,98410.37
2019-02-17T12:44:39.571Z,98403.94
2019-02-17T12:47:07.957Z,98406.93
2019-02-17T12:49:36.357Z,98397.45
2019-02-17T12:52:04.819Z,98399.98
2019-02-17T12:54:33.262Z,98391.45
2019-02-17T12:57:01.670Z,98397.82
2019-02-17T12:59:30.062Z,98389.67
2019-02-17T13:01:58.450Z,98395.25
2019-02-17T13:04:26.847Z,98391.30
2019-02-17T13:06:55.321Z,98389.98
2019-02-17T13:09:23.719Z,98382.69
2019-02-17T13:11:52.227Z,98383.52
2019-02-17T13:14:20.604Z,98381.77
2019-02-17T13:16:48.994Z,98380.04
2019-02-17T13:19:17.387Z,98375.69
2019-02-17T13:21:45.779Z,98374.81
2019-02-17T13:24:14.276Z,98365.80
2019-02-17T13:26:42.678Z,98367.05
2019-02-17T13:29:11.066Z,98362.30
2019-02-17T13:31:39.468Z,98361.84
2019-02-17T13:34:07.856Z,98354.48
2019-02-17T13:36:36.305Z,98354.81
2019-02-17T13:39:06.207Z,98355.59
2019-02-17T13:41:34.622Z,98357.20
2019-02-17T13:44:03.019Z,98350.33
2019-02-17T13:46:31.472Z,98353.77
2019-02-17T13:48:59.809Z,98348.44
2019-02-17T13:51:28.183Z,98346.29
2019-02-17T13:53:56.659Z,98342.42
2019-02-17T13:56:25.041Z,98336.05
2019-02-17T13:58:53.424Z,98337.80
2019-02-17T14:01:21.817Z,98338.87
2019-02-17T14:03:50.205Z,98338.77
2019-02-17T14:06:18.665Z,98336.58
2019-02-17T14:08:47.061Z,98336.88
2019-02-17T14:11:15.523Z,98330.07
2019-02-17T14:13:43.924Z,98338.77
2019-02-17T14:16:12.314Z,98324.91
2019-02-17T14:18:40.702Z,98323.64
2019-02-17T14:21:09.097Z,98321.12
2019-02-17T14:23:37.483Z,98324.54
2019-02-17T14:26:05.875Z,98314.33
2019-02-17T14:28:34.264Z,98308.81
2019-02-17T14:31:02.936Z,98307.11
2019-02-17T14:33:31.325Z,98299.30
2019-02-17T14:35:59.729Z,98295.02
2019-02-17T14:38:28.120Z,98295.97
2019-02-17T14:40:56.521Z,98296.80
2019-02-17T14:43:24.953Z,98291.70
2019-02-17T14:45:53.353Z,98290.41
2019-02-17T14:48:21.856Z,98289.56
2019-02-17T14:50:50.254Z,98285.80
2019-02-17T14:53:18.640Z,98286.48
2019-02-17T14:55:47.053Z,98288.20
2019-02-17T14:58:15.415Z,98282.16
2019-02-17T15:00:43.799Z,98284.80
2019-02-17T15:03:12.276Z,98282.13
2019-02-17T15:05:40.674Z,98282.58
2019-02-17T15:08:09.052Z,98282.12
2019-02-17T15:10:37.441Z,98276.03
2019-02-17T15:13:05.846Z,98272.56
2019-02-17T15:15:34.234Z,98248.30
2019-02-17T15:18:02.628Z,98266.66
2019-02-17T15:20:31.027Z,98248.02
2019-02-17T15:22:59.417Z,98265.48
2019-02-17T15:25:27.807Z,98264.98
2019-02-17T15:27:56.201Z,98260.64
2019-02-17T15:30:24.595Z,98260.67
2019-02-17T15:32:52.999Z,98264.13
2019-02-17T15:35:22.445Z,98259.89
2019-02-17T15:37:50.956Z,98259.44
2019-02-17T15:40:19.350Z,98257.32
2019-02-17T15:42:47.746Z,98253.08
2019-02-17T15:45:16.222Z,98253.56
2019-02-17T15:47:44.691Z,98253.49
2019-02-17T15:50:14.188Z,98250.88
2019-02-17T15:52:42.670Z,98242.78
2019-02-17T15:55:12.698Z,98239.69
2019-02-17T15:57:42.241Z,98238.36
2019-02-17T16:00:18.034Z,98241.87
2019-02-17T16:02:46.428Z,98245.38
2019-02-17T16:05:14.812Z,98239.47
2019-02-17T16:07:43.214Z,98237.00
2019-02-17T16:10:12.841Z,98242.19
2019-02-17T16:12:41.252Z,98240.97
2019-02-17T16:15:21.034Z,98236.28
2019-02-17T16:17:49.429Z,98231.16
2019-02-17T16:20:17.857Z,98229.52
2019-02-17T16:22:46.258Z,98227.50
2019-02-17T16:25:14.678Z,98234.02
2019-02-17T16:27:43.055Z,98233.30
2019-02-17T16:30:15.975Z,98229.16
2019-02-17T16:32:44.381Z,98237.84
2019-02-17T16:35:12.771Z,98235.78
2019-02-17T16:37:41.161Z,98232.89
2019-02-17T16:40:11.998Z,98237.70
2019-02-17T16:42:40.394Z,98241.62
2019-02-17T16:45:11.218Z,98240.84
2019-02-17T16:47:39.599Z,98236.57
2019-02-17T16:50:16.657Z,98237.50
2019-02-17T16:52:45.165Z,98245.25
2019-02-17T16:55:13.813Z,98247.42
2019-02-17T16:57:44.903Z,98249.61
2019-02-17T17:00:23.623Z,98248.75
2019-02-17T17:02:53.544Z,98246.66
2019-02-17T17:05:23.073Z,98250.13
2019-02-17T17:07:51.537Z,98254.41
2019-02-17T17:10:20.861Z,98255.27
2019-02-17T17:12:49.316Z,98255.72
2019-02-17T17:15:18.673Z,98251.05
2019-02-17T17:17:47.120Z,98245.50
2019-02-17T17:20:17.353Z,98249.36
2019-02-17T17:22:45.819Z,98251.08
2019-02-17T17:25:14.879Z,98256.65
2019-02-17T17:27:43.265Z,98259.21
2019-02-17T17:30:15.991Z,98260.06
2019-02-17T17:32:44.372Z,98260.91
2019-02-17T17:35:12.752Z,98255.81
2019-02-17T17:37:41.224Z,98256.22
2019-02-17T17:40:17.326Z,98255.80
2019-02-17T17:42:45.722Z,98257.08
2019-02-17T17:45:23.101Z,98259.21
2019-02-17T17:47:51.497Z,98258.76
2019-02-17T17:50:19.887Z,98261.73
2019-02-17T17:52:48.291Z,98261.73
2019-02-17T17:55:16.744Z,98258.31
2019-02-17T17:57:45.154Z,98268.98
2019-02-17T18:00:22.458Z,98268.53
2019-02-17T18:02:50.848Z,98272.78
2019-02-17T18:05:19.313Z,98270.19
2019-02-17T18:07:47.696Z,98275.28
2019-02-17T18:10:17.033Z,98275.26
2019-02-17T18:12:45.734Z,98269.27
2019-02-17T18:15:15.868Z,98271.80
2019-02-17T18:17:53.508Z,98273.48
2019-02-17T18:20:14.383Z,98268.77
2019-02-17T18:22:42.774Z,98266.59
2019-02-17T18:25:15.296Z,98269.11
2019-02-17T18:27:43.687Z,98272.52
2019-02-17T18:30:17.370Z,98269.94
2019-02-17T18:32:45.831Z,98271.63
2019-02-17T18:35:19.955Z,98274.98
2019-02-17T18:37:44.518Z,98272.41
2019-02-17T18:40:14.661Z,98271.51
2019-02-17T18:42:43.520Z,98270.64
2019-02-17T18:45:13.555Z,98265.91
2019-02-17T18:47:41.947Z,98267.20
2019-02-17T18:50:14.770Z,98269.73
2019-02-17T18:52:43.211Z,98268.79
2019-02-17T18:55:12.837Z,98265.38
2019-02-17T18:57:49.354Z,98264.50
2019-02-17T19:00:16.655Z,98270.87
2019-02-17T19:02:45.043Z,98269.11
2019-02-17T19:05:13.514Z,98278.89
2019-02-17T19:07:41.905Z,98280.56
2019-02-17T19:10:12.347Z,98275.05
2019-02-17T19:12:40.756Z,98276.32
2019-02-17T19:15:20.908Z,98274.16
2019-02-17T19:17:49.378Z,98267.76
2019-02-17T19:20:23.417Z,98276.63
2019-02-17T19:22:51.814Z,98272.75
2019-02-17T19:25:20.205Z,98274.83
2019-02-17T19:27:48.603Z,98270.56
2019-02-17T19:30:16.999Z,98270.52
2019-02-17T19:32:46.428Z,98270.05
2019-02-17T19:35:15.945Z,98267.91
2019-02-17T19:37:44.304Z,98272.58
2019-02-17T19:40:13.959Z,98277.65
2019-02-17T19:42:42.506Z,98269.13
2019-02-17T19:45:13.474Z,98274.23
2019-02-17T19:47:41.859Z,98281.02
2019-02-17T19:50:11.983Z,98275.41
2019-02-17T19:52:40.380Z,98281.31
2019-02-17T19:55:10.647Z,98280.88
2019-02-17T19:57:39.129Z,98279.98
2019-02-17T20:00:13.471Z,98282.11
2019-02-17T20:02:55.495Z,98287.61
2019-02-17T20:05:28.483Z,98282.86
2019-02-17T20:07:56.875Z,98281.55
2019-02-17T20:10:25.269Z,98278.55
2019-02-17T20:12:53.669Z,98276.39
2019-02-17T20:15:23.957Z,98271.27
2019-02-17T20:17:52.352Z,98275.47
2019-02-17T20:20:20.742Z,98272.02
2019-02-17T20:22:49.136Z,98267.71
2019-02-17T20:25:17.526Z,98271.50
2019-02-17T20:27:45.916Z,98273.59
2019-02-17T20:30:14.845Z,98281.20
2019-02-17T20:32:43.238Z,98283.72
2019-02-17T20:35:11.742Z,98279.83
2019-02-17T20:37:40.133Z,98281.91
2019-02-17T20:40:13.259Z,98284.45
2019-02-17T20:42:41.655Z,98292.88
2019-02-17T20:45:11.476Z,98291.12
2019-02-17T20:47:39.869Z,98290.67
2019-02-17T20:50:14.071Z,98288.94
2019-02-17T20:52:42.533Z,98289.36
2019-02-17T20:55:12.065Z,98288.89
2019-02-17T20:57:40.463Z,98285.02
2019-02-17T21:00:17.273Z,98290.09
2019-02-17T21:02:46.682Z,98287.09
2019-02-17T21:05:15.096Z,98285.74
2019-02-17T21:07:43.484Z,98284.84
2019-02-17T21:10:14.049Z,98284.42
2019-02-17T21:12:42.443Z,98283.97
2019-02-17T21:15:19.039Z,98275.02
2019-02-17T21:17:47.494Z,98283.51
2019-02-17T21:20:17.576Z,98281.33
2019-02-17T21:22:45.966Z,98280.02
2019-02-17T21:25:14.801Z,98277.00
2019-02-17T21:27:43.341Z,98274.41
2019-02-17T21:30:19.018Z,98279.88
2019-02-17T21:32:47.728Z,98279.43
2019-02-17T21:35:16.852Z,98281.95
2019-02-17T21:37:45.315Z,98279.36
2019-02-17T21:40:14.344Z,98283.58
2019-02-17T21:42:42.735Z,98283.95
2019-02-17T21:45:15.861Z,98282.62
2019-02-17T21:47:44.320Z,98288.13
2019-02-17T21:50:16.176Z,98285.53
2019-02-17T21:52:44.573Z,98286.77
2019-02-17T21:55:14.219Z,98257.61
2019-02-17T21:57:43.518Z,98286.33
2019-02-17T22:00:16.374Z,98285.83
2019-02-17T22:02:44.775Z,98285.78
2019-02-17T22:05:13.164Z,98275.94
2019-02-17T22:07:41.567Z,98274.19
2019-02-17T22:10:17.955Z,98278.80
2019-02-17T22:12:46.417Z,98280.08
2019-02-17T22:15:17.607Z,98273.69
2019-02-17T22:17:45.999Z,98280.42
2019-02-17T22:20:14.403Z,98278.76
2019-02-17T22:22:42.931Z,98274.01
2019-02-17T22:25:11.468Z,98270.14
2019-02-17T22:27:39.870Z,98270.98
2019-02-17T22:30:11.354Z,98263.30
2019-02-17T22:32:39.751Z,98263.27
2019-02-17T22:35:08.281Z,98268.75
2019-02-17T22:37:36.674Z,98264.06
2019-02-17T22:40:08.511Z,98267.46
2019-02-17T22:42:36.899Z,98264.84
2019-02-17T22:45:08.028Z,98265.63
2019-02-17T22:47:36.507Z,98269.41
2019-02-17T22:50:07.771Z,98268.52
2019-02-17T22:52:36.127Z,98265.06
2019-02-17T22:55:07.063Z,98276.09
2019-02-17T22:57:35.491Z,98276.48
2019-02-17T23:00:16.007Z,98273.89
2019-02-17T23:02:44.401Z,98273.43
2019-02-17T23:05:12.793Z,98275.52
2019-02-17T23:07:41.181Z,98275.05
2019-02-17T23:10:09.917Z,98275.80
2019-02-17T23:12:38.316Z,98275.34
2019-02-17T23:15:08.150Z,98275.30
2019-02-17T23:17:36.541Z,98278.66
2019-02-17T23:20:06.280Z,98276.53
2019-02-17T23:22:35.678Z,98273.11
2019-02-17T23:25:07.017Z,98275.59
2019-02-17T23:27:35.416Z,98275.96
2019-02-17T23:30:05.746Z,98275.96
2019-02-17T23:32:34.303Z,98281.05
2019-02-17T23:35:02.704Z,98276.72
2019-02-17T23:37:31.095Z,98277.98
2019-02-17T23:39:59.493Z,98278.38
2019-02-17T23:42:27.891Z,98281.34
2019-02-17T23:44:56.294Z,98284.25
2019-02-17T23:47:24.686Z,98281.71
2019-02-17T23:49:53.090Z,98275.75
2019-02-17T23:52:21.499Z,98276.63
2019-02-17T23:54:49.887Z,98276.95
2019-02-17T23:57:18.284Z,98276.89
2019-02-17T23:59:46.686Z,98273.93
